Time;durP1;ratioP1;P1;durP2;ratioP2;P2;SDS_P1;SDS_P2;PMS_P1;PMS_P2;Temp;Humidity;BMP_temperature;BMP_pressure;BME280_temperature;BME280_humidity;BME280_pressure;Samples;Min_cycle;Max_cycle;Signal;HPM_P1;HPM_P2
2021/04/22 00:00:16;;;;;;;21.15;11.45;;;;;;;6.08;82.76;99269.28;1774287;80;21634;-79
2021/04/22 00:02:43;;;;;;;20.05;12.23;;;;;;;6.03;83.02;99267.44;1743588;82;21121;-78
2021/04/22 00:05:30;;;;;;;20.08;12.65;;;;;;;5.97;83.08;99271.33;1783539;80;21577;-78
2021/04/22 00:07:58;;;;;;;18.52;11.90;;;;;;;5.89;83.24;99274.15;1783217;80;21189;-75
2021/04/22 00:10:30;;;;;;;23.22;12.03;;;;;;;5.85;83.57;99275.80;1783346;80;22252;-76
2021/04/22 00:12:57;;;;;;;19.65;12.33;;;;;;;5.85;83.57;99275.80;1814205;79;21090;-76
2021/04/22 00:15:25;;;;;;;23.98;13.05;;;;;;;5.82;83.75;99283.19;1815241;78;21059;-75
2021/04/22 00:17:54;;;;;;;20.25;12.47;;;;;;;5.79;83.99;99283.77;1815377;79;21132;-75
2021/04/22 00:20:22;;;;;;;20.08;12.33;;;;;;;5.79;84.54;99290.58;1815453;79;21117;-74
2021/04/22 00:22:50;;;;;;;22.45;12.35;;;;;;;5.80;84.89;99291.39;1815477;79;21392;-75
2021/04/22 00:25:17;;;;;;;20.43;11.80;;;;;;;5.84;84.97;99286.44;1815411;79;21545;-76
2021/04/22 00:27:45;;;;;;;21.00;11.88;;;;;;;5.93;85.02;99291.53;1815201;79;21130;-76
2021/04/22 00:30:14;;;;;;;19.55;12.00;;;;;;;5.93;85.02;99291.53;1815528;79;21003;-75
2021/04/22 00:32:42;;;;;;;18.90;10.48;;;;;;;5.96;84.64;99295.04;1815417;79;21145;-76
2021/04/22 00:35:11;;;;;;;16.02;10.70;;;;;;;5.96;84.64;99295.04;1815385;79;22166;-76
2021/04/22 00:37:39;;;;;;;14.65;9.60;;;;;;;5.98;84.64;99294.75;1815510;79;21546;-77
2021/04/22 00:40:13;;;;;;;15.38;10.18;;;;;;;5.98;84.54;99294.75;1815548;79;21558;-76
2021/04/22 00:42:41;;;;;;;18.50;10.28;;;;;;;5.94;84.62;99287.70;1814947;78;21007;-75
2021/04/22 00:45:10;;;;;;;15.43;10.48;;;;;;;5.96;84.48;99295.04;1815535;79;21495;-75
2021/04/22 00:47:38;;;;;;;14.78;10.38;;;;;;;5.94;84.33;99290.44;1815360;79;21366;-80
2021/04/22 00:50:17;;;;;;;13.60;9.73;;;;;;;5.91;83.94;99301.91;1815359;79;21051;-75
2021/04/22 00:52:45;;;;;;;17.37;11.25;;;;;;;5.88;84.27;99303.83;1815617;79;21451;-76
2021/04/22 00:55:13;;;;;;;14.35;10.45;;;;;;;5.82;84.16;99298.17;1815359;79;21146;-77
2021/04/22 00:57:42;;;;;;;13.95;9.98;;;;;;;5.77;84.35;99299.63;1814523;79;21134;-81
2021/04/22 01:00:11;;;;;;;14.68;10.03;;;;;;;5.73;84.34;99303.22;1815626;78;21201;-75
2021/04/22 01:02:39;;;;;;;13.85;10.10;;;;;;;5.62;84.61;99294.34;1818765;78;21069;-75
2021/04/22 01:05:11;;;;;;;13.78;9.43;;;;;;;5.62;84.61;99294.34;1818949;78;21452;-74
2021/04/22 01:07:42;;;;;;;17.73;10.93;;;;;;;5.55;84.63;99291.97;1819100;78;21592;-76
2021/04/22 01:10:11;;;;;;;16.25;11.22;;;;;;;5.41;85.06;99298.38;1818681;78;21145;-76
2021/04/22 01:12:39;;;;;;;16.85;10.88;;;;;;;5.41;85.06;99298.38;1818769;78;21121;-78
2021/04/22 01:15:10;;;;;;;15.48;10.40;;;;;;;5.40;85.42;99302.20;1818839;78;21078;-76
2021/04/22 01:17:38;;;;;;;16.97;11.35;;;;;;;5.37;85.67;99300.86;1818400;78;21565;-77
2021/04/22 01:20:13;;;;;;;22.50;11.38;;;;;;;5.32;85.66;99299.55;1818858;78;21027;-75
2021/04/22 01:22:41;;;;;;;18.45;11.65;;;;;;;5.27;85.93;99300.41;1818965;78;21141;-76
2021/04/22 01:25:13;;;;;;;17.17;11.20;;;;;;;5.23;85.94;99305.34;1818626;78;21668;-76
2021/04/22 01:27:40;;;;;;;17.57;10.83;;;;;;;5.21;86.24;99307.55;1819130;78;21034;-75
2021/04/22 01:30:12;;;;;;;14.03;9.00;;;;;;;5.19;86.47;99313.85;1818975;78;21150;-75
2021/04/22 01:32:39;;;;;;;16.35;11.53;;;;;;;5.15;86.60;99308.17;1809353;78;21157;-73
2021/04/22 01:35:09;;;;;;;18.05;12.10;;;;;;;5.13;86.32;99312.27;1810345;78;21046;-74
2021/04/22 01:37:37;;;;;;;19.07;11.78;;;;;;;5.08;86.67;99320.48;1818921;78;21283;-74
2021/04/22 01:40:06;;;;;;;18.15;12.00;;;;;;;5.07;87.01;99313.41;1818633;78;20951;-74
2021/04/22 01:42:34;;;;;;;16.50;10.68;;;;;;;5.08;87.47;99313.13;1818917;78;20920;-74
2021/04/22 01:45:04;;;;;;;19.32;12.65;;;;;;;5.09;87.51;99314.75;1818934;78;21554;-77
2021/04/22 01:47:32;;;;;;;19.92;12.55;;;;;;;5.12;88.00;99316.91;1818813;78;21133;-74
2021/04/22 01:49:59;;;;;;;20.05;11.55;;;;;;;5.24;88.30;99309.70;1818814;78;22273;-74
2021/04/22 01:52:27;;;;;;;21.02;13.15;;;;;;;5.24;88.30;99309.70;1818813;78;20960;-74
2021/04/22 01:54:56;;;;;;;19.10;12.63;;;;;;;5.28;88.54;99307.48;1818833;78;21133;-74
2021/04/22 01:57:23;;;;;;;17.25;11.85;;;;;;;5.37;88.19;99313.11;1818906;78;21540;-76
2021/04/22 01:59:50;;;;;;;22.32;12.70;;;;;;;5.37;88.19;99313.11;1818660;78;21114;-78
2021/04/22 02:02:18;;;;;;;20.70;12.65;;;;;;;5.43;88.22;99309.24;1815876;78;21389;-79
2021/04/22 02:04:45;;;;;;;18.60;13.50;;;;;;;5.46;88.11;99305.95;1815282;79;21162;-77
2021/04/22 02:07:14;;;;;;;23.22;12.80;;;;;;;5.49;87.98;99310.81;1797237;79;21568;-78
2021/04/22 02:09:41;;;;;;;20.40;13.48;;;;;;;5.52;87.95;99310.79;1783110;80;21058;-75
2021/04/22 02:12:09;;;;;;;20.10;13.15;;;;;;;5.55;87.85;99313.75;1797246;79;21172;-77
2021/04/22 02:14:37;;;;;;;17.92;12.95;;;;;;;5.56;87.64;99309.11;1805827;79;21429;-75
2021/04/22 02:17:05;;;;;;;20.88;13.65;;;;;;;5.57;87.50;99309.38;1734687;82;20982;-75
2021/04/22 02:19:32;;;;;;;18.85;12.73;;;;;;;5.57;87.39;99308.02;1734710;82;21248;-73
2021/04/22 02:22:00;;;;;;;21.97;12.30;;;;;;;5.58;87.51;99300.92;1734809;82;21061;-73
2021/04/22 02:24:27;;;;;;;21.65;13.70;;;;;;;5.59;87.34;99303.91;1734898;82;21061;-72
2021/04/22 02:26:55;;;;;;;21.35;13.72;;;;;;;5.60;87.14;99308.80;1734607;82;21384;-74
2021/04/22 02:29:22;;;;;;;19.87;13.72;;;;;;;5.56;86.92;99309.11;1739534;82;21142;-75
2021/04/22 02:31:50;;;;;;;24.52;13.28;;;;;;;5.56;86.87;99310.48;1803712;79;21047;-78
2021/04/22 02:34:17;;;;;;;20.20;13.53;;;;;;;5.54;86.83;99309.95;1815250;79;21062;-77
2021/04/22 02:36:45;;;;;;;21.95;12.70;;;;;;;5.46;87.17;99311.39;1815424;79;21038;-80
2021/04/22 02:39:12;;;;;;;21.30;13.45;;;;;;;5.46;87.17;99311.39;1815454;79;21812;-77
2021/04/22 02:41:39;;;;;;;20.55;13.72;;;;;;;5.40;87.01;99319.34;1815168;78;21329;-79
2021/04/22 02:44:09;;;;;;;23.65;14.15;;;;;;;5.40;87.01;99319.34;1814602;79;21134;-77
2021/04/22 02:46:36;;;;;;;20.02;13.75;;;;;;;5.38;87.08;99322.09;1815213;79;21126;-78
2021/04/22 02:49:04;;;;;;;21.87;13.53;;;;;;;5.31;87.11;99320.52;1815292;79;21570;-78
2021/04/22 02:51:33;;;;;;;23.00;13.83;;;;;;;5.29;87.26;99327.34;1799035;79;21642;-78
2021/04/22 02:54:00;;;;;;;22.87;14.65;;;;;;;5.25;87.42;99324.38;1783022;80;21593;-79
2021/04/22 02:56:28;;;;;;;20.32;14.33;;;;;;;5.21;87.58;99323.33;1783202;80;21042;-78
2021/04/22 02:58:55;;;;;;;21.05;14.45;;;;;;;5.17;87.83;99320.13;1754976;80;21632;-75
2021/04/22 03:01:22;;;;;;;20.48;14.50;;;;;;;5.12;87.99;99316.91;1782933;80;21149;-76
2021/04/22 03:03:50;;;;;;;22.70;14.87;;;;;;;5.11;88.11;99323.44;1813678;79;21600;-78
2021/04/22 03:06:17;;;;;;;19.77;14.07;;;;;;;5.10;88.33;99330.53;1815244;79;21062;-75
2021/04/22 03:08:45;;;;;;;22.25;14.33;;;;;;;5.09;88.50;99335.70;1815180;79;21094;-76
2021/04/22 03:11:13;;;;;;;23.15;15.65;;;;;;;5.07;88.64;99333.27;1815147;78;21133;-75
2021/04/22 03:13:43;;;;;;;21.77;15.00;;;;;;;5.04;88.73;99333.84;1815239;78;20991;-75
2021/04/22 03:16:10;;;;;;;22.17;14.83;;;;;;;5.04;88.73;99333.84;1815079;79;21202;-75
2021/04/22 03:18:38;;;;;;;23.85;14.75;;;;;;;5.02;88.72;99336.03;1815259;78;21503;-75
2021/04/22 03:21:05;;;;;;;22.15;15.08;;;;;;;5.01;88.80;99344.48;1815347;79;21091;-75
2021/04/22 03:23:32;;;;;;;22.15;15.63;;;;;;;5.01;88.91;99337.13;1814964;78;21754;-76
2021/04/22 03:26:00;;;;;;;21.42;14.30;;;;;;;5.00;88.88;99330.61;1815372;79;21189;-76
2021/04/22 03:28:27;;;;;;;25.30;15.93;;;;;;;4.98;88.85;99333.61;1815419;79;21538;-74
2021/04/22 03:30:55;;;;;;;21.33;14.98;;;;;;;4.96;88.84;99343.42;1815267;79;21596;-74
2021/04/22 03:33:22;;;;;;;22.15;15.85;;;;;;;4.96;88.91;99343.42;1815255;79;21003;-74
2021/04/22 03:35:50;;;;;;;26.30;15.63;;;;;;;4.97;89.14;99349.12;1815341;78;21164;-77
2021/04/22 03:38:18;;;;;;;28.77;16.52;;;;;;;5.00;89.37;99345.02;1815218;79;21474;-77
2021/04/22 03:40:45;;;;;;;24.35;15.35;;;;;;;5.04;89.46;99353.43;1815342;79;21752;-79
2021/04/22 03:43:13;;;;;;;23.32;14.68;;;;;;;5.08;89.49;99349.86;1815034;79;21122;-80
2021/04/22 03:45:40;;;;;;;22.07;14.75;;;;;;;5.13;89.38;99353.09;1815113;79;21011;-79
2021/04/22 03:48:08;;;;;;;25.15;15.25;;;;;;;5.17;89.39;99354.95;1815571;78;21565;-78
2021/04/22 03:50:37;;;;;;;23.70;16.20;;;;;;;5.22;89.49;99360.87;1811372;79;21058;-79
2021/04/22 03:53:04;;;;;;;22.10;15.35;;;;;;;5.27;89.58;99357.56;1783239;80;21196;-80
2021/04/22 03:55:32;;;;;;;23.95;16.67;;;;;;;5.43;89.47;99370.50;1783346;80;21116;-78
2021/04/22 03:57:59;;;;;;;23.35;15.03;;;;;;;5.43;89.47;99370.50;1783229;80;21159;-79
2021/04/22 04:00:27;;;;;;;24.07;15.25;;;;;;;5.52;89.41;99366.61;1783310;80;21077;-78
2021/04/22 04:02:55;;;;;;;24.95;16.17;;;;;;;5.62;89.16;99378.77;1777563;80;21117;-78
2021/04/22 04:05:23;;;;;;;29.27;17.07;;;;;;;5.71;88.77;99371.59;1785333;78;21882;-77
2021/04/22 04:07:53;;;;;;;31.60;16.62;;;;;;;5.80;88.34;99378.01;1818828;78;21585;-76
2021/04/22 04:10:21;;;;;;;31.85;17.35;;;;;;;5.88;87.80;99376.57;1819085;78;21160;-76
2021/04/22 04:12:48;;;;;;;27.45;18.50;;;;;;;5.96;87.37;99382.23;1792005;78;20988;-76
2021/04/22 04:15:16;;;;;;;27.45;16.67;;;;;;;6.04;87.25;99388.96;1789023;80;20953;-79
2021/04/22 04:17:44;;;;;;;22.15;15.00;;;;;;;6.14;87.14;99388.84;1762766;80;21804;-78
2021/04/22 04:20:13;;;;;;;23.65;15.00;;;;;;;6.27;86.42;99389.52;1788870;80;21171;-77
2021/04/22 04:22:40;;;;;;;21.20;15.15;;;;;;;6.35;85.94;99396.79;1789083;80;21020;-78
2021/04/22 04:25:09;;;;;;;22.17;14.87;;;;;;;6.35;85.94;99396.79;1775785;80;21044;-77
2021/04/22 04:27:37;;;;;;;24.75;17.65;;;;;;;6.47;85.48;99395.23;1757766;81;21143;-79
2021/04/22 04:30:06;;;;;;;32.17;20.80;;;;;;;6.47;85.48;99395.23;1757794;81;21495;-79
2021/04/22 04:32:35;;;;;;;24.30;15.88;;;;;;;6.54;85.37;99387.52;1757590;80;21190;-80
2021/04/22 04:35:04;;;;;;;22.67;15.15;;;;;;;6.63;85.13;99397.22;1757817;81;20985;-78
2021/04/22 04:37:31;;;;;;;25.85;15.13;;;;;;;6.71;84.85;99401.20;1757807;81;21016;-77
2021/04/22 04:39:58;;;;;;;25.02;15.10;;;;;;;6.79;84.57;99402.73;1757822;81;21186;-78
2021/04/22 04:42:26;;;;;;;29.42;17.62;;;;;;;6.86;84.25;99402.36;1757909;81;21200;-77
2021/04/22 04:44:54;;;;;;;24.98;14.23;;;;;;;6.94;84.17;99406.58;1757706;80;21198;-78
2021/04/22 04:47:22;;;;;;;20.17;14.15;;;;;;;7.02;83.98;99409.75;1757698;80;21047;-77
2021/04/22 04:49:49;;;;;;;19.30;13.80;;;;;;;7.08;83.54;99418.94;1757778;81;21072;-78
2021/04/22 04:52:17;;;;;;;23.65;16.12;;;;;;;7.12;83.29;99421.33;1757903;80;21051;-77
2021/04/22 04:54:44;;;;;;;23.60;14.43;;;;;;;7.15;83.19;99423.47;1757734;81;21205;-77
2021/04/22 04:57:11;;;;;;;22.37;14.23;;;;;;;7.18;82.78;99424.80;1757874;80;21004;-77
2021/04/22 04:59:39;;;;;;;23.62;14.00;;;;;;;7.20;82.81;99426.12;1757801;80;21099;-79
2021/04/22 05:02:06;;;;;;;21.35;14.20;;;;;;;7.20;82.67;99423.95;1766391;79;21211;-77
2021/04/22 05:04:34;;;;;;;23.18;14.55;;;;;;;7.24;82.56;99429.08;1783597;80;20978;-78
2021/04/22 05:07:01;;;;;;;18.57;13.83;;;;;;;7.25;82.11;99424.68;1783602;80;21786;-77
2021/04/22 05:09:29;;;;;;;22.15;13.75;;;;;;;7.29;82.13;99436.63;1783456;80;20906;-77
2021/04/22 05:11:57;;;;;;;23.30;13.78;;;;;;;7.37;82.57;99430.24;1789470;80;21677;-78
2021/04/22 05:14:24;;;;;;;26.20;15.25;;;;;;;7.49;81.84;99427.86;1726952;83;21180;-76
2021/04/22 05:16:52;;;;;;;20.57;12.43;;;;;;;7.64;82.17;99426.22;1791149;79;21129;-76
2021/04/22 05:19:19;;;;;;;19.20;11.83;;;;;;;7.82;81.01;99420.45;1797790;79;21479;-77
2021/04/22 05:21:46;;;;;;;18.87;11.95;;;;;;;7.99;79.74;99419.31;1783253;80;21151;-80
2021/04/22 05:24:14;;;;;;;16.62;12.05;;;;;;;8.14;79.11;99417.64;1783673;80;21130;-78
2021/04/22 05:26:41;;;;;;;19.30;12.05;;;;;;;8.27;78.39;99430.52;1783521;80;21153;-82
2021/04/22 05:29:09;;;;;;;20.00;12.13;;;;;;;8.37;77.82;99418.59;1783446;80;21529;-73
2021/04/22 05:31:36;;;;;;;20.10;11.55;;;;;;;8.42;77.41;99421.23;1783561;80;21144;-78
2021/04/22 05:34:04;;;;;;;20.35;12.18;;;;;;;8.47;76.98;99423.05;1783505;80;21620;-81
2021/04/22 05:36:32;;;;;;;18.92;11.88;;;;;;;8.51;76.84;99425.43;1783531;80;20983;-78
2021/04/22 05:39:00;;;;;;;19.12;12.23;;;;;;;8.57;76.84;99416.00;1782528;80;21662;-80
2021/04/22 05:41:27;;;;;;;22.87;12.78;;;;;;;8.73;77.16;99425.48;1782693;80;21142;-81
2021/04/22 05:43:55;;;;;;;18.85;11.78;;;;;;;8.95;76.51;99416.53;1783245;80;22430;-83
2021/04/22 05:46:23;;;;;;;17.90;11.75;;;;;;;9.17;75.46;99416.56;1783298;80;21170;-73
2021/04/22 05:48:50;;;;;;;14.35;10.05;;;;;;;9.40;75.27;99423.41;1783084;80;21018;-74
2021/04/22 05:51:19;;;;;;;12.90;9.35;;;;;;;9.58;73.91;99413.63;1783469;80;21498;-75
2021/04/22 05:53:47;;;;;;;14.55;9.40;;;;;;;9.73;72.83;99415.19;1743518;82;21041;-81
2021/04/22 05:56:14;;;;;;;15.63;10.08;;;;;;;9.84;71.67;99415.14;1712520;83;21590;-73
2021/04/22 05:58:42;;;;;;;14.40;9.68;;;;;;;9.94;71.45;99418.99;1783420;80;21577;-78
2021/04/22 06:01:10;;;;;;;15.53;9.98;;;;;;;10.04;71.24;99418.47;1783368;80;21161;-80
2021/04/22 06:03:39;;;;;;;12.65;8.85;;;;;;;10.14;70.77;99418.20;1743375;82;21063;-84
2021/04/22 06:06:06;;;;;;;15.15;9.48;;;;;;;10.23;69.73;99420.45;1712655;83;21177;-78
2021/04/22 06:08:33;;;;;;;13.32;9.18;;;;;;;10.30;69.10;99414.52;1743609;82;21727;-86
2021/04/22 06:11:01;;;;;;;15.80;9.25;;;;;;;10.35;69.21;99421.23;1748108;80;21154;-82
2021/04/22 06:13:28;;;;;;;13.60;9.30;;;;;;;10.42;68.12;99422.92;1770593;80;21114;-80
2021/04/22 06:15:56;;;;;;;15.48;8.88;;;;;;;10.47;68.09;99420.84;1756894;80;21086;-76
2021/04/22 06:18:23;;;;;;;13.98;8.68;;;;;;;10.50;67.48;99422.14;1783534;80;21107;-77
2021/04/22 06:20:51;;;;;;;16.82;9.45;;;;;;;10.57;67.80;99424.67;1783417;80;21801;-76
2021/04/22 06:23:21;;;;;;;17.52;9.45;;;;;;;10.67;67.71;99413.16;1797037;78;21225;-76
2021/04/22 06:25:49;;;;;;;12.93;9.23;;;;;;;10.78;67.55;99415.28;1794349;77;21139;-77
2021/04/22 06:28:16;;;;;;;13.53;9.28;;;;;;;10.93;66.93;99415.95;1741902;81;21143;-79
2021/04/22 06:30:44;;;;;;;14.93;9.23;;;;;;;11.08;66.17;99415.45;1792917;80;21108;-77
2021/04/22 06:33:11;;;;;;;16.17;8.30;;;;;;;11.21;65.39;99420.00;1761487;81;21250;-77
2021/04/22 06:35:40;;;;;;;16.35;8.65;;;;;;;11.35;64.83;99414.34;1793233;80;21215;-78
2021/04/22 06:38:08;;;;;;;12.70;8.70;;;;;;;11.47;63.99;99417.25;1761536;81;21207;-76
2021/04/22 06:40:35;;;;;;;14.35;8.78;;;;;;;11.61;64.48;99414.30;1780685;80;21009;-78
2021/04/22 06:43:04;;;;;;;14.78;8.15;;;;;;;11.77;62.74;99413.49;1744383;81;21024;-79
2021/04/22 06:45:33;;;;;;;16.75;8.35;;;;;;;11.88;62.24;99416.70;1748033;81;21287;-80
2021/04/22 06:48:01;;;;;;;13.53;7.85;;;;;;;12.05;61.70;99413.11;1730961;82;21253;-77
2021/04/22 06:50:29;;;;;;;11.25;7.05;;;;;;;12.17;60.99;99411.25;1736512;81;21152;-77
2021/04/22 06:52:57;;;;;;;10.82;7.42;;;;;;;12.35;61.67;99409.81;1751265;81;21088;-79
2021/04/22 06:55:25;;;;;;;11.33;6.78;;;;;;;12.55;60.54;99409.07;1750665;80;21119;-79
2021/04/22 06:57:54;;;;;;;10.88;6.80;;;;;;;12.74;59.65;99404.48;1760783;81;21808;-76
2021/04/22 07:00:23;;;;;;;8.50;5.92;;;;;;;12.95;59.33;99408.64;1755775;81;21564;-78
2021/04/22 07:02:51;;;;;;;10.50;6.45;;;;;;;13.13;58.17;99410.14;1727234;81;21168;-79
2021/04/22 07:05:18;;;;;;;10.75;6.25;;;;;;;13.31;57.68;99413.57;1710088;83;21186;-73
2021/04/22 07:07:46;;;;;;;8.75;6.10;;;;;;;13.46;55.60;99401.92;1709061;83;21168;-73
2021/04/22 07:10:14;;;;;;;8.00;5.30;;;;;;;13.55;55.44;99404.03;1691199;83;21568;-76
2021/04/22 07:12:43;;;;;;;11.18;5.53;;;;;;;13.67;54.98;99405.46;1720444;83;21083;-76
2021/04/22 07:15:12;;;;;;;8.23;4.92;;;;;;;13.85;55.10;99403.34;1695835;82;21071;-77
2021/04/22 07:17:41;;;;;;;8.65;5.40;;;;;;;14.04;52.55;99409.11;1727880;82;21666;-77
2021/04/22 07:20:12;;;;;;;9.83;5.75;;;;;;;14.24;52.21;99395.00;1717452;82;21156;-73
2021/04/22 07:22:41;;;;;;;7.95;5.10;;;;;;;14.36;51.76;99407.44;1730780;82;22189;-74
2021/04/22 07:25:11;;;;;;;7.10;4.90;;;;;;;14.41;51.88;99403.09;1739664;82;21121;-80
2021/04/22 07:27:40;;;;;;;8.85;5.15;;;;;;;14.51;50.97;99410.09;1740537;82;21564;-78
2021/04/22 07:30:09;;;;;;;6.25;4.72;;;;;;;14.58;50.77;99405.38;1728774;82;21214;-78
2021/04/22 07:32:37;;;;;;;7.70;4.80;;;;;;;14.61;49.32;99410.20;1722503;82;20951;-77
2021/04/22 07:35:08;;;;;;;6.47;4.60;;;;;;;14.59;49.92;99416.66;1711016;83;21830;-78
2021/04/22 07:37:37;;;;;;;8.10;4.80;;;;;;;14.63;49.31;99410.67;1711935;82;21089;-75
2021/04/22 07:40:09;;;;;;;5.70;4.25;;;;;;;14.80;49.74;99409.86;1725487;82;21107;-75
2021/04/22 07:42:38;;;;;;;7.00;4.42;;;;;;;15.00;48.39;99412.83;1716091;82;20939;-74
2021/04/22 07:45:07;;;;;;;6.83;4.80;;;;;;;15.06;48.54;99414.98;1720663;82;20927;-74
2021/04/22 07:47:34;;;;;;;6.17;4.45;;;;;;;15.10;47.54;99408.98;1730610;82;21393;-76
2021/04/22 07:50:09;;;;;;;9.58;4.80;;;;;;;15.13;48.22;99417.16;1711019;83;21066;-77
2021/04/22 07:52:37;;;;;;;10.38;4.87;;;;;;;15.16;47.78;99422.79;1686673;83;21041;-72
2021/04/22 07:55:07;;;;;;;8.35;4.50;;;;;;;15.25;47.06;99423.23;1720358;82;21133;-75
2021/04/22 07:57:35;;;;;;;7.55;4.40;;;;;;;15.45;47.66;99420.30;1740717;82;21128;-74
2021/04/22 08:00:06;;;;;;;7.08;3.92;;;;;;;15.78;46.29;99415.89;1740500;82;21369;-74
2021/04/22 08:02:35;;;;;;;9.98;4.95;;;;;;;16.17;47.19;99423.84;1740125;82;21137;-74
2021/04/22 08:05:04;;;;;;;7.03;4.53;;;;;;;16.63;46.26;99417.29;1807770;78;21185;-76
2021/04/22 08:07:32;;;;;;;6.20;4.58;;;;;;;17.00;43.10;99415.00;1794539;78;21153;-76
2021/04/22 08:09:59;;;;;;;8.40;5.17;;;;;;;17.19;43.51;99414.81;1815339;79;21166;-75
2021/04/22 08:12:27;;;;;;;12.82;5.08;;;;;;;17.37;42.46;99409.84;1815747;78;20955;-75
2021/04/22 08:14:58;;;;;;;8.13;5.47;;;;;;;17.41;41.66;99409.92;1815604;79;21570;-75
2021/04/22 08:17:25;;;;;;;10.30;5.58;;;;;;;17.26;42.42;99421.91;1814796;78;21019;-76
2021/04/22 08:19:53;;;;;;;10.58;5.22;;;;;;;17.25;42.65;99415.55;1801422;78;21489;-75
2021/04/22 08:22:20;;;;;;;5.70;4.22;;;;;;;17.40;43.05;99415.25;1783551;80;20998;-74
2021/04/22 08:24:47;;;;;;;9.33;6.00;;;;;;;17.56;41.53;99410.44;1783593;80;21268;-74
2021/04/22 08:27:15;;;;;;;6.62;4.60;;;;;;;17.60;41.58;99419.64;1783504;80;21068;-74
2021/04/22 08:29:42;;;;;;;8.23;5.03;;;;;;;17.58;41.74;99409.48;1783429;80;21201;-74
2021/04/22 08:32:10;;;;;;;9.88;4.97;;;;;;;17.58;39.85;99410.07;1783505;80;21171;-75
2021/04/22 08:34:38;;;;;;;8.30;4.70;;;;;;;17.62;40.93;99405.39;1795139;79;21057;-74
2021/04/22 08:37:05;;;;;;;8.53;4.50;;;;;;;17.88;39.42;99410.30;1803521;79;21035;-74
2021/04/22 08:39:32;;;;;;;6.72;4.42;;;;;;;17.95;39.35;99406.24;1792409;79;21562;-74
2021/04/22 08:42:00;;;;;;;9.90;4.45;;;;;;;18.05;39.91;99407.03;1804325;79;21146;-76
2021/04/22 08:44:27;;;;;;;6.12;4.55;;;;;;;18.32;38.53;99412.88;1743758;82;21368;-76
2021/04/22 08:46:55;;;;;;;7.70;4.50;;;;;;;18.59;37.59;99404.56;1712842;83;21604;-74
2021/04/22 08:49:25;;;;;;;7.62;4.20;;;;;;;18.78;38.38;99394.77;1743436;82;21615;-73
2021/04/22 08:51:53;;;;;;;5.03;3.83;;;;;;;18.94;37.85;99396.80;1759570;80;21556;-73
2021/04/22 08:54:20;;;;;;;7.35;4.00;;;;;;;18.97;37.12;99400.23;1715196;81;21479;-73
2021/04/22 08:56:49;;;;;;;6.58;4.05;;;;;;;18.95;37.38;99396.22;1751602;82;21099;-72
2021/04/22 08:59:17;;;;;;;4.92;3.80;;;;;;;19.03;37.69;99391.77;1762938;81;21149;-71
2021/04/22 09:01:49;;;;;;;8.23;4.35;;;;;;;19.18;37.28;99394.72;1751902;82;21363;-67
2021/04/22 09:04:16;;;;;;;6.03;4.25;;;;;;;19.28;37.26;99396.84;1761899;81;21078;-71
2021/04/22 09:06:44;;;;;;;7.67;4.40;;;;;;;19.29;36.54;99390.91;1732335;82;21532;-71
2021/04/22 09:09:11;;;;;;;6.15;3.90;;;;;;;19.13;36.52;99392.48;1760925;81;21117;-72
2021/04/22 09:11:47;;;;;;;5.08;3.35;;;;;;;19.15;35.87;99387.93;1729496;82;21055;-73
2021/04/22 09:14:18;;;;;;;5.90;3.95;;;;;;;19.23;36.85;99391.61;1725998;83;21374;-72
2021/04/22 09:16:47;;;;;;;5.60;3.97;;;;;;;19.16;35.59;99369.26;1726218;83;21145;-71
2021/04/22 09:19:18;;;;;;;6.87;4.25;;;;;;;18.64;35.83;99390.38;1725253;83;21189;-71
2021/04/22 09:21:57;;;;;;;6.60;4.40;;;;;;;18.33;37.53;99390.87;1724957;82;21098;-75
2021/04/22 09:24:26;;;;;;;7.10;4.10;;;;;;;18.27;37.96;99388.18;1725549;82;21193;-72
2021/04/22 09:27:02;;;;;;;9.83;3.72;;;;;;;18.32;37.66;99378.15;1725314;82;21188;-72
2021/04/22 09:29:45;;;;;;;9.55;4.15;;;;;;;18.28;36.58;99388.98;1725499;82;20916;-73
2021/04/22 09:32:27;;;;;;;9.18;4.47;;;;;;;17.94;37.21;99386.00;1725683;82;21142;-75
2021/04/22 09:35:01;;;;;;;11.03;4.50;;;;;;;17.57;38.08;99390.42;1725800;83;20956;-76
2021/04/22 09:37:46;;;;;;;6.20;3.80;;;;;;;17.46;39.33;99381.88;1725865;83;21054;-70
2021/04/22 09:40:29;;;;;;;5.65;3.80;;;;;;;17.61;39.73;99375.45;1729417;82;21359;-64
2021/04/22 09:43:00;;;;;;;6.50;3.75;;;;;;;17.66;38.51;99376.57;1736133;82;21075;-63
2021/04/22 09:45:31;;;;;;;7.85;4.12;;;;;;;17.94;37.51;99388.77;1767199;81;21051;-87
2021/04/22 09:48:00;;;;;;;6.65;3.87;;;;;;;18.27;37.87;99378.45;1734550;82;20951;-71
2021/04/22 09:50:29;;;;;;;9.75;4.28;;;;;;;18.40;37.58;99371.53;1737005;82;21486;-72
2021/04/22 09:52:58;;;;;;;4.80;3.80;;;;;;;18.37;36.59;99375.05;1736934;82;21250;-70
2021/04/22 09:55:29;;;;;;;6.47;3.87;;;;;;;18.23;37.03;99381.76;1736745;82;21008;-72
2021/04/22 09:57:57;;;;;;;5.12;3.92;;;;;;;17.97;37.53;99370.57;1713987;82;21086;-71
2021/04/22 10:00:30;;;;;;;5.17;3.55;;;;;;;17.65;37.81;99356.09;1725467;81;21095;-68
2021/04/22 10:03:10;;;;;;;10.05;4.00;;;;;;;17.80;37.83;99359.38;1724003;82;21181;-64
2021/04/22 10:05:40;;;;;;;8.40;3.22;;;;;;;18.22;37.22;99355.73;1744077;81;21334;-63
2021/04/22 10:08:13;;;;;;;9.50;3.47;;;;;;;18.80;36.27;99357.07;1772930;81;21072;-64
2021/04/22 10:11:00;;;;;;;11.53;3.50;;;;;;;19.10;35.07;99361.23;1773059;80;20986;-64
2021/04/22 10:13:30;;;;;;;5.90;3.05;;;;;;;19.27;35.40;99349.33;1773136;80;21045;-68
2021/04/22 10:15:58;;;;;;;4.72;3.17;;;;;;;19.09;34.17;99359.63;1772927;80;20947;-68
2021/04/22 10:18:43;;;;;;;5.10;3.70;;;;;;;18.86;34.57;99357.55;1773228;80;22212;-66
2021/04/22 10:21:11;;;;;;;;;;;;;;;18.62;34.69;99355.20;1775484;81;20954;-66
2021/04/22 10:23:38;;;;;;;4.50;3.60;;;;;;;18.41;36.10;99364.00;1773103;81;20152;-65
2021/04/22 10:26:18;;;;;;;4.95;3.52;;;;;;;18.61;34.83;99353.00;1740514;81;21945;-66
2021/04/22 10:28:47;;;;;;;4.22;3.58;;;;;;;18.88;35.18;99366.31;1764602;80;21579;-66
2021/04/22 10:31:15;;;;;;;10.08;3.77;;;;;;;19.02;34.80;99350.42;1738686;81;21389;-65
2021/04/22 10:33:42;;;;;;;6.15;3.37;;;;;;;19.27;34.83;99342.38;1731169;81;21107;-67
2021/04/22 10:36:12;;;;;;;9.18;3.77;;;;;;;19.42;34.16;99335.80;1745518;81;21041;-65
2021/04/22 10:38:40;;;;;;;7.42;3.70;;;;;;;19.39;33.92;99331.80;1755854;81;21180;-66
2021/04/22 10:41:07;;;;;;;4.33;3.15;;;;;;;19.23;33.19;99340.13;1751079;81;21066;-63
2021/04/22 10:43:35;;;;;;;9.80;3.55;;;;;;;19.02;34.07;99333.73;1738473;82;21561;-65
2021/04/22 10:46:03;;;;;;;5.20;2.72;;;;;;;18.88;33.52;99348.24;1735566;82;21000;-66
2021/04/22 10:48:31;;;;;;;3.47;3.08;;;;;;;18.67;33.31;99343.17;1746931;82;21164;-65
2021/04/22 10:50:59;;;;;;;6.05;3.00;;;;;;;18.52;33.17;99335.75;1746930;82;21498;-66
2021/04/22 10:53:27;;;;;;;5.60;3.22;;;;;;;18.62;34.06;99335.73;1746869;82;21071;-64
2021/04/22 10:55:55;;;;;;;5.20;3.58;;;;;;;18.80;33.67;99327.07;1735746;82;21403;-65
2021/04/22 10:58:30;;;;;;;5.10;3.42;;;;;;;18.68;33.42;99321.73;1717404;82;21127;-68
2021/04/22 11:01:03;;;;;;;14.25;6.65;;;;;;;18.32;33.66;99328.72;1717271;83;20933;-69
2021/04/22 11:03:35;;;;;;;4.87;3.83;;;;;;;18.30;35.24;99326.89;1719154;81;21519;-65
2021/04/22 11:06:11;;;;;;;4.87;3.02;;;;;;;18.48;34.86;99318.25;1752561;80;21115;-68
2021/04/22 11:08:41;;;;;;;5.00;2.95;;;;;;;18.56;34.33;99310.80;1731406;81;21449;-66
2021/04/22 11:11:32;;;;;;;4.47;3.08;;;;;;;18.40;33.77;99322.09;1747875;81;21065;-67
2021/04/22 11:14:12;;;;;;;6.03;3.50;;;;;;;18.10;34.53;99319.22;1744103;82;21063;-65
2021/04/22 11:16:49;;;;;;;;;;;;;;;17.81;35.29;99320.73;1746503;82;21004;-66
2021/04/22 11:19:23;;;;;;;6.45;3.45;;;;;;;17.63;35.59;99314.82;1731524;82;20222;-66
2021/04/22 11:22:00;;;;;;;11.50;4.95;;;;;;;17.43;37.16;99310.47;1744172;82;21253;-68
2021/04/22 11:24:35;;;;;;;6.53;4.22;;;;;;;17.16;37.96;99298.46;1744226;82;20952;-67
2021/04/22 11:27:09;;;;;;;8.03;4.50;;;;;;;16.94;38.26;99306.12;1744184;82;21015;-67
2021/04/22 11:29:46;;;;;;;7.00;3.90;;;;;;;16.91;38.70;99308.23;1744318;82;20932;-67
2021/04/22 11:32:28;;;;;;;5.33;3.75;;;;;;;16.92;37.81;99305.67;1743643;82;21146;-67
2021/04/22 11:35:10;;;;;;;5.00;3.37;;;;;;;17.02;37.46;99300.94;1743954;82;23212;-67
2021/04/22 11:37:42;;;;;;;5.60;3.80;;;;;;;17.12;37.17;99290.66;1744282;82;21634;-67